createdAt,value
2022-11-17T00:02:29.405Z,10.50
2022-11-17T00:06:38.083Z,10.50
2022-11-17T00:10:46.715Z,10.50
2022-11-17T00:14:55.341Z,10.50
2022-11-17T00:19:41.243Z,10.50
2022-11-17T00:23:50.820Z,10.50
2022-11-17T00:28:02.563Z,10.50
2022-11-17T00:32:37.306Z,10.50
2022-11-17T00:36:55.182Z,10.50
2022-11-17T00:41:03.812Z,10.50
2022-11-17T00:45:12.437Z,10.50
2022-11-17T00:49:22.933Z,10.50
2022-11-17T00:53:31.718Z,10.50
2022-11-17T00:57:40.395Z,10.50
2022-11-17T01:01:49.151Z,10.50
2022-11-17T01:05:59.273Z,10.50
2022-11-17T01:10:08.926Z,10.40
2022-11-17T01:14:20.623Z,10.50
2022-11-17T01:18:29.253Z,10.40
2022-11-17T01:22:37.902Z,10.40
2022-11-17T01:26:47.861Z,10.40
2022-11-17T01:31:08.556Z,10.40
2022-11-17T01:35:29.127Z,10.40
2022-11-17T01:39:37.897Z,10.40
2022-11-17T01:43:49.685Z,10.40
2022-11-17T01:48:00.577Z,10.40
2022-11-17T01:52:11.868Z,10.40
2022-11-17T01:56:23.673Z,10.40
2022-11-17T02:00:32.710Z,10.40
2022-11-17T02:05:08.271Z,10.40
2022-11-17T02:09:17.033Z,10.40
2022-11-17T02:13:45.802Z,10.40
2022-11-17T02:17:54.393Z,10.40
2022-11-17T02:22:22.326Z,10.40
2022-11-17T02:26:50.196Z,10.40
2022-11-17T02:31:20.129Z,10.40
2022-11-17T02:35:37.553Z,10.40
2022-11-17T02:40:08.812Z,10.40
2022-11-17T02:44:23.174Z,10.40
2022-11-17T02:48:52.592Z,10.40
2022-11-17T02:53:01.321Z,10.40
2022-11-17T02:57:15.788Z,10.40
2022-11-17T03:01:36.042Z,10.40
2022-11-17T03:06:07.450Z,10.40
2022-11-17T03:10:21.917Z,10.40
2022-11-17T03:14:37.350Z,10.40
2022-11-17T03:19:03.602Z,10.40
2022-11-17T03:23:15.350Z,10.40
2022-11-17T03:27:38.668Z,10.40
2022-11-17T03:31:50.886Z,10.40
2022-11-17T03:36:11.750Z,10.40
2022-11-17T03:40:44.340Z,10.40
2022-11-17T03:45:04.743Z,10.40
2022-11-17T03:49:25.355Z,10.40
2022-11-17T03:53:35.764Z,10.40
2022-11-17T03:57:50.807Z,10.40
2022-11-17T04:02:00.170Z,10.30
2022-11-17T04:06:09.085Z,10.30
2022-11-17T04:10:21.254Z,10.30
2022-11-17T04:14:47.539Z,10.30
2022-11-17T04:18:58.969Z,10.20
2022-11-17T04:23:11.314Z,10.20
2022-11-17T04:27:37.874Z,10.20
2022-11-17T04:31:47.038Z,10.20
2022-11-17T04:35:55.667Z,10.10
2022-11-17T04:40:23.650Z,10.10
2022-11-17T04:44:44.764Z,10.20
2022-11-17T04:48:55.962Z,10.20
2022-11-17T04:53:04.590Z,10.10
2022-11-17T04:57:13.216Z,10.10
2022-11-17T05:01:22.667Z,10.10
2022-11-17T05:05:31.371Z,10.20
2022-11-17T05:09:40.000Z,10.20
2022-11-17T05:13:50.955Z,10.20
2022-11-17T05:17:59.616Z,10.30
2022-11-17T05:22:27.768Z,10.30
2022-11-17T05:26:38.247Z,10.30
2022-11-17T05:30:46.833Z,10.30
2022-11-17T05:34:55.942Z,10.30
2022-11-17T05:39:07.026Z,10.30
2022-11-17T05:43:15.553Z,10.30
2022-11-17T05:47:24.099Z,10.30
2022-11-17T05:51:32.706Z,10.40
2022-11-17T05:55:41.951Z,10.40
2022-11-17T05:59:53.552Z,10.40
2022-11-17T06:04:05.027Z,10.40
2022-11-17T06:08:13.768Z,10.40
2022-11-17T06:12:22.307Z,10.40
2022-11-17T06:16:33.527Z,10.40
2022-11-17T06:20:48.512Z,10.40
2022-11-17T06:24:57.937Z,10.40
2022-11-17T06:29:06.843Z,10.40
2022-11-17T06:33:19.112Z,10.40
2022-11-17T06:37:27.936Z,10.40
2022-11-17T06:41:39.900Z,10.30
2022-11-17T06:46:07.889Z,10.40
2022-11-17T06:50:16.830Z,10.40
2022-11-17T06:54:25.352Z,10.40
2022-11-17T06:58:35.538Z,10.40
2022-11-17T07:02:44.257Z,10.40
2022-11-17T07:06:52.819Z,10.40
2022-11-17T07:11:05.988Z,10.40
2022-11-17T07:15:15.459Z,10.40
2022-11-17T07:19:23.989Z,10.40
2022-11-17T07:23:34.364Z,10.40
2022-11-17T07:27:43.086Z,10.50
2022-11-17T07:31:51.655Z,10.50
2022-11-17T07:36:07.845Z,10.50
2022-11-17T07:40:16.819Z,10.50
2022-11-17T07:44:25.691Z,10.50
2022-11-17T07:48:34.606Z,10.50
2022-11-17T07:52:43.411Z,10.60
2022-11-17T07:56:52.089Z,10.50
2022-11-17T08:01:00.976Z,10.60
2022-11-17T08:05:10.097Z,10.60
2022-11-17T08:09:18.897Z,10.60
2022-11-17T08:13:27.406Z,10.60
2022-11-17T08:17:36.911Z,10.60
2022-11-17T08:21:47.482Z,10.70
2022-11-17T08:25:56.327Z,10.60
2022-11-17T08:30:06.958Z,10.60
2022-11-17T08:34:15.524Z,10.60
2022-11-17T08:38:25.759Z,10.70
2022-11-17T08:42:34.337Z,10.60
2022-11-17T08:46:43.106Z,10.60
2022-11-17T08:50:52.063Z,10.60
2022-11-17T08:55:01.124Z,10.60
2022-11-17T08:59:12.576Z,10.50
2022-11-17T09:03:21.930Z,10.50
2022-11-17T09:07:35.808Z,10.50
2022-11-17T09:11:44.504Z,10.50
2022-11-17T09:15:53.237Z,10.60
2022-11-17T09:20:01.971Z,10.60
2022-11-17T09:24:10.907Z,10.70
2022-11-17T09:28:19.719Z,10.70
2022-11-17T09:32:28.827Z,10.70
2022-11-17T09:36:37.938Z,10.80
2022-11-17T09:40:46.555Z,10.70
2022-11-17T09:45:07.016Z,10.70
2022-11-17T09:49:24.589Z,10.70
2022-11-17T09:53:42.285Z,10.80
2022-11-17T09:58:02.735Z,10.80
2022-11-17T10:02:12.174Z,10.80
2022-11-17T10:06:32.894Z,10.90
2022-11-17T10:10:50.458Z,11.00
2022-11-17T10:15:01.559Z,11.00
2022-11-17T10:19:19.100Z,11.10
2022-11-17T10:23:30.764Z,11.20
2022-11-17T10:27:42.356Z,11.30
2022-11-17T10:31:50.939Z,11.30
2022-11-17T10:36:00.095Z,11.40
2022-11-17T10:40:38.976Z,11.40
2022-11-17T10:44:53.635Z,11.50
2022-11-17T10:49:04.963Z,11.60
2022-11-17T10:53:28.468Z,11.60
2022-11-17T10:57:37.438Z,11.70
2022-11-17T11:01:48.678Z,11.70
2022-11-17T11:06:03.097Z,11.80
2022-11-17T11:10:20.538Z,11.80
2022-11-17T11:14:41.035Z,11.80
2022-11-17T11:18:53.223Z,11.80
2022-11-17T11:23:05.974Z,11.80
2022-11-17T11:27:20.612Z,11.70
2022-11-17T11:31:52.416Z,11.60
2022-11-17T11:36:11.432Z,11.60
2022-11-17T11:40:42.454Z,11.50
2022-11-17T11:44:59.979Z,11.60
2022-11-17T11:49:40.965Z,11.60
2022-11-17T11:53:52.871Z,11.60
2022-11-17T11:58:19.435Z,11.70
2022-11-17T12:02:34.560Z,11.70
2022-11-17T12:06:46.509Z,11.70
2022-11-17T12:10:58.187Z,11.70
2022-11-17T12:15:25.985Z,11.70
2022-11-17T12:19:48.027Z,11.70
2022-11-17T12:24:12.035Z,11.70
2022-11-17T12:28:41.254Z,11.70
2022-11-17T12:32:52.945Z,11.70
2022-11-17T12:37:16.530Z,11.70
2022-11-17T12:42:02.388Z,11.70
2022-11-17T12:46:19.845Z,11.80
2022-11-17T12:50:37.546Z,11.70
2022-11-17T12:54:57.807Z,11.80
2022-11-17T12:59:27.238Z,11.70
2022-11-17T13:03:57.029Z,11.70
2022-11-17T13:08:17.538Z,11.60
2022-11-17T13:12:33.786Z,11.60
2022-11-17T13:16:48.633Z,11.50
2022-11-17T13:20:57.653Z,11.40
2022-11-17T13:25:24.596Z,11.50
2022-11-17T13:29:33.174Z,11.50
2022-11-17T13:33:41.739Z,11.50
2022-11-17T13:38:22.246Z,11.60
2022-11-17T13:42:35.196Z,11.60
2022-11-17T13:46:44.007Z,11.60
2022-11-17T13:50:53.414Z,11.60
2022-11-17T13:55:02.185Z,11.60
2022-11-17T13:59:26.088Z,11.70
2022-11-17T14:03:38.056Z,11.70
2022-11-17T14:07:48.047Z,11.70
2022-11-17T14:11:57.860Z,11.70
2022-11-17T14:16:07.077Z,11.60
2022-11-17T14:20:27.492Z,11.60
2022-11-17T14:24:38.456Z,11.60
2022-11-17T14:28:47.651Z,11.60
2022-11-17T14:33:03.585Z,11.50
2022-11-17T14:37:26.232Z,11.50
2022-11-17T14:41:35.060Z,11.50
2022-11-17T14:45:43.621Z,11.50
2022-11-17T14:49:53.267Z,11.40
2022-11-17T14:54:02.185Z,11.40
2022-11-17T14:58:10.810Z,11.40
2022-11-17T15:02:19.387Z,11.30
2022-11-17T15:06:47.330Z,11.30
2022-11-17T15:10:55.942Z,11.30
2022-11-17T15:15:06.417Z,11.30
2022-11-17T15:19:15.051Z,11.20
2022-11-17T15:23:23.547Z,11.30
2022-11-17T15:27:32.211Z,11.20
2022-11-17T15:31:40.774Z,11.20
2022-11-17T15:35:49.340Z,11.30
2022-11-17T15:39:57.982Z,11.20
2022-11-17T15:44:06.700Z,11.20
2022-11-17T15:48:18.754Z,11.20
2022-11-17T15:52:48.665Z,11.10
2022-11-17T15:56:37.202Z,11.10
2022-11-17T16:00:45.856Z,11.10
2022-11-17T16:04:54.418Z,11.10
2022-11-17T16:09:03.252Z,11.10
2022-11-17T16:13:12.233Z,11.10
2022-11-17T16:17:21.578Z,11.10
2022-11-17T16:21:30.412Z,11.20
2022-11-17T16:25:44.736Z,11.20
2022-11-17T16:30:13.125Z,11.20
2022-11-17T16:34:22.621Z,11.10
2022-11-17T16:38:31.140Z,11.10
2022-11-17T16:42:40.284Z,11.10
2022-11-17T16:46:49.978Z,11.00
2022-11-17T16:50:58.668Z,11.00
2022-11-17T16:59:23.655Z,10.90
2022-11-17T17:03:32.631Z,10.80
2022-11-17T17:07:41.353Z,10.80
2022-11-17T17:11:50.871Z,10.80
2022-11-17T17:16:20.181Z,10.70
2022-11-17T17:20:29.281Z,10.70
2022-11-17T17:24:59.997Z,10.60
2022-11-17T17:29:10.442Z,10.60
2022-11-17T17:33:19.047Z,10.50
2022-11-17T17:37:28.697Z,10.40
2022-11-17T17:41:40.976Z,10.30
2022-11-17T17:45:49.806Z,10.30
2022-11-17T17:49:59.470Z,10.20
2022-11-17T17:54:10.200Z,10.10
2022-11-17T17:58:19.562Z,10.10
2022-11-17T18:02:28.278Z,10.10
2022-11-17T18:06:42.003Z,10.10
2022-11-17T18:10:50.656Z,10.10
2022-11-17T18:14:59.386Z,10.10
2022-11-17T18:19:09.476Z,10.10
2022-11-17T18:23:18.925Z,10.20
2022-11-17T18:27:28.696Z,10.20
2022-11-17T18:31:56.839Z,10.20
2022-11-17T18:36:10.384Z,10.20
2022-11-17T18:40:19.733Z,10.20
2022-11-17T18:44:30.509Z,10.20
2022-11-17T18:48:40.911Z,10.30
2022-11-17T18:52:50.306Z,10.40
2022-11-17T18:57:00.184Z,10.40
2022-11-17T19:01:14.926Z,10.50
2022-11-17T19:05:24.829Z,10.50
2022-11-17T19:09:34.911Z,10.50
2022-11-17T19:13:45.320Z,10.50
2022-11-17T19:17:54.697Z,10.50
2022-11-17T19:22:04.185Z,10.40
2022-11-17T19:26:15.168Z,10.40
2022-11-17T19:30:25.095Z,10.40
2022-11-17T19:34:34.942Z,10.30
2022-11-17T19:38:45.811Z,10.30
2022-11-17T19:42:54.798Z,10.20
2022-11-17T19:47:03.961Z,10.10
2022-11-17T19:51:25.084Z,10.00
2022-11-17T19:55:35.651Z,9.90
2022-11-17T19:59:46.218Z,9.90
2022-11-17T20:03:56.079Z,9.80
2022-11-17T20:08:05.068Z,9.80
2022-11-17T20:12:13.876Z,9.80
2022-11-17T20:16:25.453Z,9.70
2022-11-17T20:20:34.043Z,9.70
2022-11-17T20:24:42.652Z,9.60
2022-11-17T20:28:52.232Z,9.60
2022-11-17T20:33:00.757Z,9.60
2022-11-17T20:37:09.285Z,9.60
2022-11-17T20:41:17.986Z,9.60
2022-11-17T20:45:27.106Z,9.60
2022-11-17T20:49:35.755Z,9.50
2022-11-17T20:53:45.188Z,9.40
2022-11-17T20:57:53.936Z,9.40
2022-11-17T21:02:02.950Z,9.40
2022-11-17T21:06:12.431Z,9.40
2022-11-17T21:10:21.005Z,9.40
2022-11-17T21:14:30.554Z,9.30
2022-11-17T21:19:00.219Z,9.30
2022-11-17T21:23:08.746Z,9.30
2022-11-17T21:27:18.949Z,9.30
2022-11-17T21:31:29.358Z,9.30
2022-11-17T21:35:38.011Z,9.30
2022-11-17T21:39:46.554Z,9.30
2022-11-17T21:43:57.418Z,9.30
2022-11-17T21:48:06.694Z,9.20
2022-11-17T21:52:15.282Z,9.20
2022-11-17T21:56:25.627Z,9.30
2022-11-17T22:00:34.194Z,9.30
2022-11-17T22:04:42.753Z,9.40
2022-11-17T22:08:51.985Z,9.40
2022-11-17T22:13:00.994Z,9.40
2022-11-17T22:17:10.460Z,9.40
2022-11-17T22:21:19.609Z,9.40
2022-11-17T22:25:44.696Z,9.50
2022-11-17T22:29:58.617Z,9.50
2022-11-17T22:34:07.749Z,9.50
2022-11-17T22:38:16.775Z,9.50
2022-11-17T22:42:25.373Z,9.60
2022-11-17T22:46:35.185Z,9.60
2022-11-17T22:50:43.843Z,9.60
2022-11-17T22:54:52.471Z,9.60
2022-11-17T22:59:01.411Z,9.60
2022-11-17T23:03:10.484Z,9.50
2022-11-17T23:07:19.340Z,9.40
2022-11-17T23:11:43.372Z,9.40
2022-11-17T23:15:40.167Z,9.40
2022-11-17T23:19:48.907Z,9.50
2022-11-17T23:23:57.583Z,9.50
2022-11-17T23:28:06.791Z,9.50
2022-11-17T23:32:15.359Z,9.50
2022-11-17T23:36:24.964Z,9.50
2022-11-17T23:40:33.633Z,9.50
2022-11-17T23:44:42.263Z,9.60
2022-11-17T23:48:51.197Z,9.60
2022-11-17T23:52:59.825Z,9.60
2022-11-17T23:57:08.864Z,9.60
